CMB828 Details

Departure: Daniel K Inouye International Airport (PHNL)
Arrival: Wake Island Airfield (PWAK)
Route: KEOLA2 PUPPI 2200N/17000W 2200N/18000E 2100N/17000E AWK
Notes: USTRANSCOM CONTRACT FLIGHT | LIMITED FUEL AVBL TO NON-DOD ACFT, TANKERING RCMD


Current Weather Information
PHNL 250953Z 05011KT 10SM FEW032 BKN060 27/19 A3009 RMK AO2 SLP187 T02720194 403220233 $
PWAK 250958Z AUTO 07016KT 8000 HZ SCT024 SCT037 BKN075 27/22 A3001 RMK AO2 SLP169 T02660216 $